| time (UTC) | temp F | wind direction | speed knots | gust knots | rain 1hr in | rain 24hr in | rain mn in | humidity % | barometer mb |
| 20260906132845 | 68 | 86 | 0.0 | 0.0 | 0.00 | 0.00 | 0.00 | 83 | 1016.9 |
| 20260906132413 | 68 | 79 | 0.9 | 0.9 | 0.00 | 0.00 | 0.00 | 89 | 1016.9 |
| 20260906131525 | 68 | 83 | 0.0 | 0.0 | 0.00 | 0.00 | 0.00 | 87 | 1016.5 |
| 20260906131110 | 67 | 68 | 0.9 | 1.7 | 0.00 | 0.00 | 0.00 | 86 | 1016.5 |
| 20260906125734 | 67 | 56 | 0.9 | 5.2 | 0.00 | 0.00 | 0.00 | 87 | 1016.2 |
| 20260906125246 | 67 | 53 | 1.7 | 1.7 | 0.00 | 0.00 | 0.00 | 88 | 1016.2 |
| 20260906124828 | 67 | 65 | 1.7 | 1.7 | 0.00 | 0.00 | 0.00 | 88 | 1016.2 |
| 20260906123924 | 67 | 62 | 0.0 | 0.9 | 0.00 | 0.00 | 0.00 | 89 | 1016.2 |
| 20260906123452 | 66 | 81 | 0.0 | 0.0 | 0.00 | 0.00 | 0.00 | 90 | 1016.2 |
| 20260906123021 | 66 | 56 | 0.0 | 0.0 | 0.00 | 0.00 | 0.00 | 91 | 1016.2 |
| 20260906122604 | 65 | 89 | 0.9 | 0.9 | 0.00 | 0.00 | 0.00 | 91 | 1015.9 |
| 20260906122148 | 65 | 60 | 0.9 | 1.7 | 0.00 | 0.00 | 0.00 | 93 | 1016.2 |
| 20260906121715 | 65 | 84 | 0.9 | 1.7 | 0.00 | 0.00 | 0.00 | 93 | 1016.2 |
| 20260906121241 | 64 | 45 | 2.6 | 2.6 | 0.00 | 0.00 | 0.00 | 94 | 1016.2 |
| 20260906115853 | 65 | 48 | 2.6 | 2.6 | 0.00 | 0.00 | 0.00 | 94 | 1015.9 |
| 20260906115421 | 65 | 35 | 1.7 | 2.6 | 0.00 | 0.00 | 0.00 | 94 | 1015.9 |
| 20260906114947 | 65 | 86 | 0.9 | 1.7 | 0.00 | 0.00 | 0.00 | 94 | 1015.5 |
| 20260906114532 | 65 | 60 | 1.7 | 2.6 | 0.00 | 0.00 | 0.00 | 94 | 1015.5 |
| 20260906114117 | 65 | 31 | 2.6 | 2.6 | 0.00 | 0.00 | 0.00 | 94 | 1015.5 |
| 20260906113615 | 65 | 79 | 0.9 | 0.9 | 0.00 | 0.00 | 0.00 | 95 | 1015.5 |
| 20260906112655 | 64 | 29 | 3.5 | 5.2 | 0.00 | 0.00 | 0.00 | 96 | 1015.5 |
| 20260906111739 | 65 | 50 | 0.9 | 1.7 | 0.00 | 0.00 | 0.00 | 96 | 1015.5 |
| 20260906111323 | 65 | 60 | 0.9 | 1.7 | 0.00 | 0.00 | 0.00 | 95 | 1015.2 |
| 20260906110906 | 65 | 69 | 0.0 | 0.9 | 0.00 | 0.00 | 0.00 | 96 | 1015.2 |
| 20260906110435 | 65 | 65 | 0.9 | 0.9 | 0.00 | 0.00 | 0.00 | 96 | 1015.2 |
| 20260906110021 | 65 | 82 | 0.9 | 0.9 | 0.00 | 0.00 | 0.00 | 96 | 1015.2 |
| 20260906105120 | 65 | 84 | 0.0 | 0.9 | 0.00 | 0.00 | 0.00 | 96 | 1015.2 |
| 20260906104650 | 65 | 81 | 0.0 | 0.0 | 0.00 | 0.00 | 0.00 | 96 | 1014.9 |
| 20260906104232 | 65 | 81 | 0.9 | 0.9 | 0.00 | 0.00 | 0.00 | 96 | 1014.9 |
| 20260906103815 | 65 | 70 | 0.0 | 0.9 | 0.00 | 0.00 | 0.00 | 96 | 1014.9 |
| 20260906103359 | 65 | 59 | 0.9 | 0.9 | 0.00 | 0.00 | 0.00 | 96 | 1015.2 |
| 20260906102441 | 66 | 53 | 0.0 | 0.0 | 0.00 | 0.00 | 0.00 | 96 | 1014.9 |
| 20260906102010 | 66 | 71 | 0.0 | 0.0 | 0.00 | 0.00 | 0.00 | 96 | 1014.9 |
| 20260906101125 | 66 | 69 | 0.0 | 0.9 | 0.00 | 0.00 | 0.00 | 96 | 1014.9 |
| 20260906100223 | 66 | 60 | 0.0 | 0.0 | 0.00 | 0.00 | 0.00 | 96 | 1014.5 |
| 20260906095751 | 66 | 63 | 0.9 | 0.9 | 0.00 | 0.00 | 0.00 | 96 | 1014.5 |
| 20260906095321 | 67 | 69 | 0.0 | 0.0 | 0.00 | 0.00 | 0.00 | 96 | 1014.5 |
| 20260906094902 | 67 | 69 | 0.9 | 0.9 | 0.00 | 0.00 | 0.00 | 95 | 1014.5 |
| 20260906093946 | 67 | 75 | 0.0 | 0.0 | 0.00 | 0.00 | 0.00 | 95 | 1014.5 |
| 20260906093529 | 67 | 12 | 2.6 | 2.6 | 0.00 | 0.00 | 0.00 | 96 | 1014.5 |
| 20260906093114 | 68 | 77 | 0.0 | 0.9 | 0.00 | 0.00 | 0.00 | 96 | 1014.5 |
| 20260906092656 | 68 | 76 | 2.6 | 3.5 | 0.00 | 0.00 | 0.00 | 96 | 1014.5 |
| 20260906091340 | 68 | 29 | 0.9 | 0.9 | 0.00 | 0.00 | 0.00 | 97 | 1014.5 |
| 20260906090908 | 68 | 72 | 0.0 | 0.0 | 0.00 | 0.00 | 0.00 | 97 | 1014.5 |
| 20260906090002 | 68 | 65 | 0.0 | 0.0 | 0.00 | 0.00 | 0.00 | 98 | 1014.5 |
| 20260906085530 | 68 | 80 | 0.0 | 0.0 | 0.00 | 0.00 | 0.00 | 98 | 1014.5 |
| 20260906085113 | 68 | 75 | 0.9 | 0.9 | 0.00 | 0.00 | 0.00 | 98 | 1014.2 |
| 20260906084642 | 68 | 62 | 0.9 | 1.7 | 0.00 | 0.00 | 0.00 | 98 | 1014.2 |
| 20260906084212 | 68 | 58 | 0.9 | 1.7 | 0.00 | 0.00 | 0.00 | 98 | 1014.5 |
| 20260906083739 | 68 | 58 | 1.7 | 2.6 | 0.00 | 0.00 | 0.00 | 98 | 1014.2 |
| 20260906083323 | 68 | 71 | 0.0 | 0.0 | 0.00 | 0.00 | 0.00 | 98 | 1014.2 |
| 20260906082904 | 68 | 75 | 0.9 | 0.9 | 0.00 | 0.00 | 0.00 | 99 | 1014.5 |
| 20260906082433 | 68 | 75 | 0.0 | 0.0 | 0.00 | 0.00 | 0.00 | 99 | 1014.5 |
| 20260906082002 | 68 | 82 | 0.0 | 0.0 | 0.00 | 0.00 | 0.00 | 99 | 1014.5 |
| 20260906081515 | 68 | 75 | 0.0 | 0.0 | 0.00 | 0.00 | 0.00 | 99 | 1014.5 |
| 20260906081044 | 68 | 22 | 1.7 | 2.6 | 0.00 | 0.00 | 0.00 | 99 | 1014.5 |
| 20260906080614 | 68 | 81 | 0.0 | 0.0 | 0.00 | 0.00 | 0.00 | 99 | 1014.5 |
| 20260906080144 | 68 | 58 | 0.0 | 0.0 | 0.00 | 0.00 | 0.00 | 99 | 1014.5 |
| 20260906075726 | 68 | 54 | 0.0 | 0.0 | 0.00 | 0.00 | 0.00 | 99 | 1014.5 |
| 20260906074837 | 68 | 69 | 0.9 | 0.9 | 0.00 | 0.00 | 0.00 | 99 | 1014.5 |
| 20260906074422 | 68 | 80 | 0.0 | 0.0 | 0.00 | 0.00 | 0.00 | 99 | 1014.5 |
| 20260906074004 | 69 | 67 | 0.9 | 0.9 | 0.00 | 0.00 | 0.00 | 99 | 1014.5 |
| 20260906073533 | 69 | 76 | 0.0 | 0.0 | 0.00 | 0.00 | 0.00 | 99 | 1014.5 |
| 20260906073116 | 69 | 80 | 0.0 | 0.0 | 0.00 | 0.00 | 0.00 | 99 | 1014.5 |
| 20260906072227 | 69 | 28 | 0.9 | 1.7 | 0.00 | 0.00 | 0.00 | 99 | 1014.5 |
| 20260906071756 | 69 | 74 | 0.0 | 0.0 | 0.00 | 0.00 | 0.00 | 99 | 1014.5 |
| 20260906071340 | 69 | 69 | 0.0 | 0.0 | 0.00 | 0.00 | 0.00 | 99 | 1014.5 |
| 20260906070422 | 69 | 48 | 0.0 | 0.9 | 0.00 | 0.00 | 0.00 | 99 | 1014.5 |
| 20260906065518 | 69 | 75 | 0.0 | 0.0 | 0.00 | 0.00 | 0.00 | 99 | 1014.5 |
| 20260906064630 | 69 | 56 | 0.9 | 0.9 | 0.00 | 0.00 | 0.00 | 99 | 1014.5 |
| 20260906063725 | 69 | 79 | 0.0 | 0.0 | 0.00 | 0.00 | 0.00 | 99 | 1014.5 |
| 20260906063307 | 69 | 75 | 0.0 | 0.0 | 0.00 | 0.00 | 0.00 | 99 | 1014.5 |
| 20260906062851 | 69 | 73 | 0.0 | 0.0 | 0.00 | 0.00 | 0.00 | 99 | 1014.5 |
| 20260906062436 | 69 | 78 | 0.0 | 0.0 | 0.00 | 0.00 | 0.00 | 99 | 1014.5 |
| 20260906062002 | 69 | 79 | 0.0 | 0.0 | 0.00 | 0.00 | 0.00 | 99 | 1014.5 |
| 20260906061531 | 69 | 78 | 0.0 | 0.0 | 0.00 | 0.00 | 0.00 | 99 | 1014.5 |
| 20260906061114 | 68 | 80 | 0.0 | 0.0 | 0.00 | 0.00 | 0.00 | 99 | 1014.5 |
| 20260906060657 | 68 | 84 | 0.0 | 0.0 | 0.00 | 0.00 | 0.00 | 99 | 1014.5 |
| 20260906060242 | 68 | 84 | 0.0 | 0.0 | 0.00 | 0.00 | 0.00 | 99 | 1014.5 |
| 20260906055825 | 68 | 84 | 0.0 | 0.0 | 0.00 | 0.00 | 0.00 | 99 | 1014.5 |
| 20260906055410 | 68 | 84 | 0.0 | 0.0 | 0.00 | 0.00 | 0.00 | 99 | 1014.5 |
| 20260906054954 | 69 | 84 | 0.0 | 0.0 | 0.00 | 0.00 | 0.00 | 99 | 1014.5 |
| 20260906054053 | 69 | 108 | 0.0 | 0.0 | 0.00 | 0.00 | 0.00 | 99 | 1014.5 |
| 20260906053639 | 69 | 82 | 0.0 | 0.0 | 0.00 | 0.00 | 0.00 | 99 | 1014.2 |
| 20260906053208 | 70 | 82 | 0.0 | 0.0 | 0.00 | 0.00 | 0.00 | 99 | 1014.2 |
| 20260906052737 | 70 | 75 | 0.0 | 0.0 | 0.00 | 0.00 | 0.00 | 99 | 1014.5 |
| 20260906052306 | 69 | 83 | 0.0 | 0.0 | 0.00 | 0.00 | 0.00 | 99 | 1014.5 |
| 20260906051834 | 69 | 83 | 0.0 | 0.0 | 0.00 | 0.00 | 0.00 | 99 | 1013.8 |
| 20260906050918 | 70 | 91 | 0.0 | 0.0 | 0.00 | 0.00 | 0.00 | 99 | 1014.5 |
| 20260906050503 | 70 | 101 | 0.0 | 0.0 | 0.00 | 0.00 | 0.00 | 99 | 1014.2 |
| 20260906050033 | 70 | 91 | 0.0 | 0.0 | 0.00 | 0.00 | 0.00 | 99 | 1014.2 |
| 20260906045616 | 70 | 77 | 0.0 | 0.0 | 0.00 | 0.00 | 0.00 | 99 | 1014.2 |
| 20260906045159 | 70 | 88 | 0.0 | 0.9 | 0.00 | 0.00 | 0.00 | 99 | 1014.2 |
| 20260906044743 | 70 | 80 | 0.0 | 0.0 | 0.00 | 0.00 | 0.00 | 99 | 1014.2 |
| 20260906044312 | 70 | 77 | 0.0 | 0.0 | 0.00 | 0.00 | 0.00 | 99 | 1014.2 |
| 20260906043840 | 70 | 78 | 0.0 | 0.0 | 0.00 | 0.00 | 0.00 | 99 | 1014.5 |
| 20260906043410 | 70 | 77 | 0.0 | 0.0 | 0.00 | 0.00 | 0.00 | 99 | 1014.2 |
| 20260906042509 | 70 | 75 | 0.0 | 0.0 | 0.00 | 0.00 | 0.00 | 99 | 1014.2 |
| 20260906042054 | 70 | 73 | 0.0 | 0.0 | 0.00 | 0.00 | 0.00 | 99 | 1014.2 |
| 20260906041622 | 70 | 79 | 0.0 | 0.0 | 0.00 | 0.00 | 0.00 | 99 | 1014.2 |
| 20260906041136 | 70 | 81 | 0.0 | 0.0 | 0.00 | 0.00 | 0.00 | 99 | 1014.2 |
| 20260906040719 | 70 | 81 | 0.0 | 0.0 | 0.00 | 0.00 | 0.00 | 99 | 1014.2 |
| 20260906040302 | 70 | 81 | 0.0 | 0.0 | 0.00 | 0.00 | 0.00 | 99 | 1014.2 |
| 20260906035832 | 70 | 81 | 0.0 | 0.0 | 0.00 | 0.00 | 0.52 | 99 | 1013.8 |
| 20260906035415 | 70 | 81 | 0.0 | 0.0 | 0.00 | 0.00 | 0.52 | 99 | 1014.2 |
| 20260906034958 | 70 | 81 | 0.0 | 0.0 | 0.00 | 0.00 | 0.52 | 99 | 1013.8 |
| 20260906034545 | 71 | 81 | 0.0 | 0.0 | 0.00 | 0.00 | 0.52 | 99 | 1014.2 |
| 20260906033610 | 71 | 83 | 0.0 | 0.0 | 0.00 | 0.00 | 0.52 | 99 | 1014.2 |
| 20260906033156 | 71 | 78 | 0.0 | 0.0 | 0.00 | 0.00 | 0.52 | 98 | 1014.2 |
| 20260906032721 | 71 | 79 | 0.0 | 0.0 | 0.00 | 0.00 | 0.52 | 98 | 1013.8 |
| 20260906032250 | 71 | 80 | 0.0 | 0.0 | 0.00 | 0.00 | 0.52 | 97 | 1014.2 |
| 20260906031348 | 72 | 78 | 0.0 | 0.0 | 0.00 | 0.00 | 0.52 | 97 | 1014.2 |
| 20260906030444 | 72 | 78 | 0.0 | 0.0 | 0.00 | 0.00 | 0.52 | 96 | 1014.2 |
| 20260906030027 | 72 | 79 | 0.0 | 0.0 | 0.00 | 0.00 | 0.52 | 96 | 1014.2 |
| 20260906025556 | 72 | 96 | 0.0 | 0.0 | 0.00 | 0.00 | 0.52 | 96 | 1014.5 |
| 20260906025123 | 72 | 65 | 1.7 | 1.7 | 0.00 | 0.00 | 0.52 | 95 | 1014.5 |
| 20260906024650 | 73 | 77 | 0.0 | 0.0 | 0.00 | 0.00 | 0.52 | 95 | 1014.5 |
| 20260906024219 | 73 | 69 | 1.7 | 1.7 | 0.00 | 0.00 | 0.52 | 96 | 1014.5 |
| 20260906023746 | 72 | 71 | 0.9 | 1.7 | 0.00 | 0.00 | 0.52 | 96 | 1014.5 |
| 20260906022844 | 72 | 68 | 0.0 | 0.0 | 0.00 | 0.00 | 0.52 | 99 | 1014.2 |
| 20260906022412 | 72 | 315 | 2.6 | 2.6 | 0.00 | 0.00 | 0.52 | 99 | 1014.5 |
| 20260906021956 | 72 | 4 | 3.5 | 3.5 | 0.00 | 0.00 | 0.52 | 99 | 1014.2 |
| 20260906021526 | 72 | 32 | 0.0 | 0.9 | 0.00 | 0.00 | 0.52 | 99 | 1014.2 |
| 20260906021109 | 71 | 73 | 0.0 | 0.0 | 0.00 | 0.00 | 0.52 | 99 | 1014.2 |
| 20260906020621 | 71 | 85 | 0.0 | 0.0 | 0.00 | 0.00 | 0.52 | 99 | 1014.2 |
| 20260906020150 | 71 | 85 | 0.0 | 0.0 | 0.00 | 0.00 | 0.52 | 99 | 1013.8 |
| 20260906015305 | 71 | 85 | 0.0 | 0.0 | 0.00 | 0.00 | 0.52 | 99 | 1013.8 |
| 20260906014829 | 71 | 85 | 0.0 | 0.0 | 0.00 | 0.00 | 0.52 | 99 | 1013.8 |
| 20260906013941 | 71 | 86 | 0.0 | 0.0 | 0.00 | 0.00 | 0.52 | 99 | 1013.8 |
| 20260906013524 | 71 | 86 | 0.0 | 0.0 | 0.00 | 0.00 | 0.52 | 99 | 1013.8 |
| 20260906013051 | 72 | 85 | 0.0 | 0.0 | 0.00 | 0.00 | 0.52 | 99 | 1013.8 |
| 20260906011731 | 72 | 89 | 0.0 | 0.0 | 0.00 | 0.00 | 0.52 | 99 | 1013.8 |
| 20260906011245 | 72 | 100 | 0.0 | 0.0 | 0.00 | 0.00 | 0.52 | 99 | 1013.8 |
| 20260906010341 | 72 | 82 | 0.0 | 0.0 | 0.00 | 0.00 | 0.52 | 99 | 1013.8 |
| 20260906005925 | 72 | 82 | 0.0 | 0.0 | 0.00 | 0.00 | 0.52 | 99 | 1013.5 |
| 20260906005508 | 72 | 82 | 0.0 | 0.0 | 0.00 | 0.00 | 0.52 | 99 | 1013.2 |
| 20260906005036 | 72 | 80 | 0.0 | 0.0 | 0.00 | 0.00 | 0.52 | 99 | 1013.2 |
| 20260906004132 | 73 | 80 | 0.0 | 0.0 | 0.00 | 0.00 | 0.52 | 99 | 1013.2 |
| 20260906003714 | 73 | 83 | 0.0 | 0.0 | 0.00 | 0.00 | 0.52 | 99 | 1013.5 |
| 20260906003258 | 73 | 88 | 0.0 | 0.0 | 0.00 | 0.00 | 0.52 | 99 | 1013.2 |
| 20260906002811 | 73 | 88 | 0.0 | 0.0 | 0.00 | 0.00 | 0.52 | 98 | 1013.5 |
| 20260906002354 | 73 | 88 | 0.0 | 0.0 | 0.00 | 0.00 | 0.52 | 98 | 1013.2 |
| 20260906001937 | 73 | 88 | 0.0 | 0.0 | 0.00 | 0.00 | 0.52 | 98 | 1013.2 |
| 20260906001521 | 73 | 92 | 0.0 | 0.0 | 0.00 | 0.00 | 0.52 | 98 | 1013.2 |
| 20260906001049 | 73 | 82 | 0.0 | 0.0 | 0.00 | 0.00 | 0.52 | 97 | 1013.2 |
| 20260906000204 | 74 | 81 | 0.0 | 0.0 | 0.00 | 0.00 | 0.52 | 97 | 1013.2 |
| 20260905235744 | 74 | 83 | 0.0 | 0.0 | 0.00 | 0.00 | 0.52 | 96 | 1013.2 |
| 20260905235310 | 74 | 83 | 0.0 | 0.0 | 0.00 | 0.00 | 0.52 | 96 | 1013.5 |
| 20260905234839 | 75 | 82 | 0.0 | 0.0 | 0.00 | 0.00 | 0.52 | 96 | 1013.2 |
| 20260905234423 | 75 | 82 | 0.0 | 0.0 | 0.00 | 0.00 | 0.52 | 95 | 1013.2 |
| 20260905234008 | 76 | 80 | 0.0 | 0.0 | 0.00 | 0.00 | 0.52 | 94 | 1013.5 |
| 20260905233553 | 76 | 82 | 0.0 | 0.0 | 0.00 | 0.00 | 0.52 | 93 | 1013.2 |
| 20260905232654 | 77 | 82 | 0.0 | 0.0 | 0.00 | 0.00 | 0.52 | 91 | 1013.2 |
| 20260905232226 | 77 | 82 | 0.0 | 0.0 | 0.00 | 0.00 | 0.52 | 91 | 1013.2 |
| 20260905231756 | 77 | 82 | 0.0 | 0.0 | 0.00 | 0.00 | 0.52 | 90 | 1013.2 |
| 20260905230911 | 78 | 82 | 0.0 | 0.0 | 0.00 | 0.00 | 0.52 | 89 | 1013.2 |
| 20260905230441 | 78 | 82 | 0.0 | 0.0 | 0.00 | 0.00 | 0.52 | 87 | 1013.2 |
| 20260905230010 | 78 | 82 | 0.0 | 0.0 | 0.00 | 0.00 | 0.52 | 87 | 1013.2 |
| 20260905225055 | 79 | 81 | 0.0 | 0.0 | 0.00 | 0.00 | 0.52 | 86 | 1013.2 |
| 20260905224638 | 80 | 81 | 0.0 | 0.0 | 0.00 | 0.00 | 0.52 | 85 | 1013.2 |
| 20260905224220 | 80 | 88 | 0.0 | 0.0 | 0.00 | 0.00 | 0.52 | 82 | 1013.2 |
| 20260905223802 | 81 | 91 | 0.0 | 0.0 | 0.00 | 0.00 | 0.52 | 79 | 1013.2 |
| 20260905223333 | 82 | 80 | 0.0 | 0.0 | 0.00 | 0.00 | 0.52 | 76 | 1013.2 |
| 20260905222917 | 83 | 88 | 0.0 | 0.0 | 0.00 | 0.00 | 0.52 | 72 | 1013.2 |
| 20260905222503 | 84 | 69 | 0.0 | 0.0 | 0.00 | 0.00 | 0.52 | 74 | 1013.2 |
| 20260905222047 | 85 | 91 | 0.0 | 0.0 | 0.00 | 0.00 | 0.52 | 69 | 1013.2 |
| 20260905221632 | 84 | 80 | 0.0 | 0.0 | 0.00 | 0.00 | 0.52 | 71 | 1013.2 |
| 20260905220730 | 84 | 70 | 0.0 | 0.0 | 0.00 | 0.00 | 0.52 | 70 | 1013.2 |
| 20260905215838 | 85 | 80 | 0.0 | 0.0 | 0.00 | 0.00 | 0.52 | 73 | 1013.5 |
| 20260905214951 | 85 | 79 | 0.0 | 0.0 | 0.00 | 0.00 | 0.52 | 74 | 1013.5 |
| 20260905214521 | 85 | 77 | 0.0 | 0.0 | 0.00 | 0.00 | 0.52 | 69 | 1013.2 |
| 20260905214105 | 84 | 111 | 0.0 | 0.9 | 0.00 | 0.00 | 0.52 | 70 | 1013.2 |
| 20260905213636 | 84 | 70 | 0.0 | 0.9 | 0.00 | 0.00 | 0.52 | 75 | 1013.2 |
| 20260905212252 | 83 | 81 | 0.0 | 0.0 | 0.00 | 0.00 | 0.52 | 74 | 1013.2 |
| 20260905211407 | 83 | 77 | 0.0 | 0.0 | 0.00 | 0.00 | 0.52 | 74 | 1013.2 |
| 20260905210950 | 83 | 75 | 0.0 | 0.0 | 0.00 | 0.00 | 0.52 | 74 | 1013.2 |
| 20260905210536 | 84 | 87 | 0.0 | 0.0 | 0.00 | 0.00 | 0.52 | 73 | 1013.2 |
| 20260905210105 | 84 | 94 | 0.0 | 0.0 | 0.00 | 0.00 | 0.52 | 70 | 1013.2 |
| 20260905205617 | 83 | 80 | 0.0 | 0.0 | 0.00 | 0.00 | 0.52 | 71 | 1013.2 |
| 20260905204719 | 85 | 180 | 1.7 | 1.7 | 0.00 | 0.00 | 0.52 | 68 | 1013.2 |
| 20260905204301 | 85 | 74 | 0.0 | 0.0 | 0.00 | 0.00 | 0.52 | 67 | 1013.2 |
| 20260905203845 | 84 | 48 | 0.9 | 0.9 | 0.00 | 0.00 | 0.52 | 69 | 1013.5 |
| 20260905203430 | 83 | 86 | 0.0 | 0.0 | 0.00 | 0.00 | 0.52 | 68 | 1013.2 |
| 20260905203015 | 84 | 119 | 0.9 | 0.9 | 0.00 | 0.00 | 0.52 | 70 | 1013.2 |
| 20260905202601 | 85 | 95 | 0.0 | 0.0 | 0.00 | 0.00 | 0.52 | 66 | 1013.2 |
| 20260905202146 | 86 | 119 | 0.9 | 0.9 | 0.00 | 0.00 | 0.52 | 66 | 1013.5 |
| 20260905201732 | 86 | 108 | 0.0 | 0.9 | 0.00 | 0.00 | 0.52 | 72 | 1013.5 |
| 20260905201316 | 85 | 55 | 0.0 | 0.0 | 0.00 | 0.00 | 0.52 | 69 | 1013.2 |
| 20260905200846 | 85 | 74 | 0.0 | 0.0 | 0.00 | 0.00 | 0.52 | 69 | 1013.5 |
| 20260905200401 | 86 | 75 | 0.0 | 0.9 | 0.00 | 0.00 | 0.52 | 66 | 1013.5 |
| 20260905195946 | 85 | 81 | 0.0 | 0.0 | 0.00 | 0.00 | 0.52 | 65 | 1013.5 |
| 20260905195516 | 85 | 72 | 0.0 | 0.0 | 0.00 | 0.00 | 0.52 | 69 | 1013.8 |
| 20260905195100 | 86 | 250 | 1.7 | 2.6 | 0.00 | 0.00 | 0.52 | 65 | 1013.8 |
| 20260905194155 | 85 | 241 | 2.6 | 2.6 | 0.00 | 0.00 | 0.52 | 67 | 1013.8 |
| 20260905193708 | 85 | 216 | 1.7 | 1.7 | 0.00 | 0.00 | 0.52 | 68 | 1013.8 |
| 20260905193252 | 85 | 103 | 1.7 | 1.7 | 0.00 | 0.00 | 0.52 | 67 | 1013.8 |
| 20260905191933 | 82 | 87 | 0.0 | 0.0 | 0.00 | 0.00 | 0.52 | 75 | 1013.8 |
| 20260905191049 | 82 | 81 | 0.0 | 0.0 | 0.00 | 0.00 | 0.52 | 74 | 1014.2 |
| 20260905190617 | 81 | 226 | 1.7 | 1.7 | 0.00 | 0.00 | 0.52 | 75 | 1014.2 |
| 20260905185730 | 81 | 86 | 0.0 | 0.0 | 0.00 | 0.00 | 0.52 | 76 | 1014.2 |
| 20260905185314 | 81 | 82 | 0.0 | 0.0 | 0.00 | 0.00 | 0.52 | 77 | 1014.2 |
| 20260905184843 | 81 | 76 | 0.0 | 0.0 | 0.00 | 0.00 | 0.52 | 72 | 1014.5 |
| 20260905184429 | 82 | 110 | 0.0 | 0.9 | 0.00 | 0.00 | 0.52 | 73 | 1014.5 |
| 20260905183958 | 83 | 123 | 0.0 | 0.9 | 0.00 | 0.00 | 0.52 | 70 | 1014.5 |
| 20260905183527 | 84 | 86 | 0.0 | 0.0 | 0.00 | 0.00 | 0.52 | 70 | 1014.5 |
| 20260905183110 | 83 | 37 | 0.9 | 0.9 | 0.00 | 0.00 | 0.52 | 74 | 1014.5 |
| 20260905182652 | 83 | 74 | 0.0 | 0.9 | 0.00 | 0.00 | 0.52 | 72 | 1014.5 |
| 20260905182223 | 83 | 71 | 0.0 | 0.0 | 0.00 | 0.00 | 0.52 | 77 | 1014.5 |
| 20260905181805 | 81 | 85 | 0.0 | 0.9 | 0.00 | 0.00 | 0.52 | 74 | 1014.5 |
| 20260905180914 | 82 | 104 | 0.9 | 1.7 | 0.00 | 0.00 | 0.52 | 75 | 1014.9 |
| 20260905180012 | 83 | 236 | 3.5 | 3.5 | 0.00 | 0.00 | 0.52 | 76 | 1014.5 |
| 20260905175557 | 82 | 82 | 0.0 | 0.9 | 0.00 | 0.00 | 0.52 | 73 | 1014.5 |
| 20260905175143 | 82 | 295 | 2.6 | 2.6 | 0.00 | 0.00 | 0.52 | 72 | 1014.5 |
| 20260905174726 | 81 | 102 | 1.7 | 2.6 | 0.00 | 0.00 | 0.52 | 78 | 1014.5 |
| 20260905174257 | 81 | 99 | 0.9 | 1.7 | 0.00 | 0.00 | 0.52 | 76 | 1014.9 |
| 20260905173842 | 80 | 89 | 1.7 | 1.7 | 0.00 | 0.00 | 0.52 | 75 | 1014.9 |
| 20260905172955 | 80 | 111 | 1.7 | 3.5 | 0.00 | 0.00 | 0.52 | 76 | 1014.9 |
| 20260905172539 | 82 | 80 | 3.5 | 5.2 | 0.00 | 0.00 | 0.52 | 75 | 1014.5 |
| 20260905172109 | 81 | 94 | 0.0 | 0.0 | 0.00 | 0.00 | 0.52 | 75 | 1014.9 |
| 20260905171651 | 81 | 131 | 0.9 | 1.7 | 0.00 | 0.00 | 0.52 | 74 | 1015.2 |
| 20260905171238 | 82 | 232 | 4.3 | 5.2 | 0.00 | 0.00 | 0.52 | 75 | 1015.2 |
| 20260905170805 | 80 | 30 | 0.9 | 0.9 | 0.00 | 0.00 | 0.52 | 78 | 1015.2 |
| 20260905170335 | 80 | 121 | 0.9 | 0.9 | 0.00 | 0.00 | 0.52 | 79 | 1015.2 |
| 20260905165918 | 80 | 24 | 1.7 | 1.7 | 0.00 | 0.00 | 0.52 | 77 | 1015.2 |
| 20260905165501 | 79 | 27 | 0.9 | 1.7 | 0.00 | 0.00 | 0.52 | 82 | 1015.2 |
| 20260905165045 | 79 | 117 | 0.0 | 0.0 | 0.00 | 0.00 | 0.52 | 79 | 1015.5 |
| 20260905164629 | 79 | 171 | 3.5 | 3.5 | 0.00 | 0.00 | 0.52 | 80 | 1015.5 |
| 20260905164214 | 80 | 214 | 3.5 | 5.2 | 0.00 | 0.00 | 0.52 | 79 | 1015.5 |
| 20260905163742 | 78 | 128 | 1.7 | 3.5 | 0.00 | 0.00 | 0.52 | 81 | 1015.5 |
| 20260905163312 | 79 | 120 | 0.9 | 1.7 | 0.00 | 0.00 | 0.52 | 81 | 1015.5 |
| 20260905162840 | 80 | 223 | 2.6 | 5.2 | 0.00 | 0.00 | 0.52 | 79 | 1015.2 |
| 20260905145017 | 72 | 60 | 1.7 | 2.6 | 0.00 | 0.00 | 0.52 | 99 | 1015.2 |
| 20260905144559 | 72 | 60 | 1.7 | 2.6 | 0.00 | 0.00 | 0.52 | 99 | 1015.2 |
| 20260905144144 | 72 | 60 | 1.7 | 2.6 | 0.00 | 0.00 | 0.52 | 99 | 1015.2 |
| 20260905143726 | 71 | 79 | 0.9 | 1.7 | 0.00 | 0.00 | 0.52 | 99 | 1015.2 |
| 20260905143256 | 71 | 78 | 0.0 | 0.0 | 0.00 | 0.00 | 0.52 | 99 | 1014.9 |
| 20260905142823 | 71 | 81 | 0.0 | 0.0 | 0.00 | 0.00 | 0.52 | 99 | 1014.9 |
| 20260905142407 | 70 | 196 | 1.7 | 1.7 | 0.00 | 0.00 | 0.52 | 99 | 1014.9 |
| 20260905141948 | 70 | 75 | 0.0 | 0.0 | 0.00 | 0.00 | 0.52 | 99 | 1014.9 |
| 20260905141533 | 70 | 102 | 0.9 | 1.7 | 0.00 | 0.00 | 0.52 | 99 | 1014.9 |
| 20260905140631 | 70 | 126 | 2.6 | 3.5 | 0.00 | 0.00 | 0.52 | 99 | 1014.5 |
| 20260905140215 | 70 | 100 | 0.0 | 0.9 | 0.00 | 0.00 | 0.52 | 99 | 1014.5 |
| 20260905135756 | 70 | 127 | 0.9 | 1.7 | 0.00 | 0.00 | 0.52 | 99 | 1014.5 |
| 20260905135338 | 70 | 90 | 1.7 | 1.7 | 0.00 | 0.00 | 0.52 | 99 | 1014.2 |
| 20260905134450 | 70 | 93 | 0.0 | 0.0 | 0.00 | 0.00 | 0.52 | 99 | 1014.2 |
| 20260905134033 | 70 | 130 | 1.7 | 1.7 | 0.00 | 0.00 | 0.52 | 99 | 1014.9 |
| 20260905133600 | 70 | 98 | 0.9 | 0.9 | 0.00 | 0.00 | 0.52 | 99 | 1014.9 |